WETTERDATEN

GESTERN
Time Temp. Taup. r.Fe. Windrich Windstärke Windböe Druck 1h Prec. 24h Prec.
00:05 5.2 1.1 75 270 0.3 1.9 997.9 0.0000 0.0000
00:16 5.2 1.3 76 284 0.8 1.9 997.7 0.0000 0.0000
00:25 5.1 1.4 77 270 0.3 1.9 997.7 0.0000 0.0000
00:35 5.1 1.6 78 270 0.3 1.9 997.8 0.0000 0.0000
00:46 5 1.5 78 291 0.8 2.2 997.9 0.0000 0.0000
00:56 5 1.7 79 270 0.3 1.4 997.8 0.0000 0.0000
01:06 4.9 1.6 79 270 0.3 1.4 997.8 0.0000 0.0000
01:15 4.9 1.7 80 315 0.3 1.4 997.8 0.0000 0.0000
01:26 4.9 1.7 80 270 0.3 1.1 997.6 0.0000 0.0000
01:36 4.8 1.6 80 0 0.8 2.5 997.8 0.1010 0.1000
01:46 4.8 1.6 80 306 0.8 3.1 997.8 0.1010 0.1000
01:56 4.8 1.6 80 303 0.8 2.5 997.8 0.1010 0.1000
02:07 4.8 1.8 81 305 0.3 1.9 997.8 0.1010 0.1000
02:16 4.8 1.8 81 270 0.3 1.1 997.7 0.1010 0.1000
02:26 4.8 1.8 81 270 0.3 2.2 997.8 0.1010 0.1000
02:37 4.8 1.8 81 270 0.3 1.4 997.8 0.0000 0.1000
02:47 4.8 1.8 81 270 0.3 1.9 998 0.0000 0.1000
02:57 4.9 1.9 81 345 0.3 1.9 998.1 0.0000 0.1000
03:07 4.9 1.9 81 270 0.3 1.1 997.9 0.0000 0.1000
03:17 4.9 1.9 81 270 0.3 1.1 998 0.0000 0.1000
03:27 4.9 1.9 81 45 0.3 1.9 998.1 0.0000 0.1000
03:37 4.9 1.9 81 270 0.3 1.1 998.2 0.0000 0.1000
03:48 4.9 1.9 81 270 0.3 1.1 998.1 0.1010 0.2000
03:58 4.9 2.1 82 306 0.3 1.9 998 0.1010 0.2000
04:07 5 2.2 82 270 0.3 1.1 997.8 0.1010 0.2000
04:17 5 2.2 82 270 0.3 1.4 997.7 0.1010 0.2000
04:28 5 2.2 82 270 0.3 1.4 997.9 0.1010 0.2000
04:38 5 2.2 82 270 0.3 1.4 998 0.0000 0.2000
04:48 5 2.2 82 270 0.3 1.9 998.2 0.0000 0.2000
04:58 5 2.2 82 270 0.3 1.1 998 0.0000 0.2000
05:08 5 2.2 82 270 0.3 1.9 998.1 0.0000 0.2000
05:18 5 2.2 82 270 0.3 1.1 997.9 0.0000 0.2000
05:28 5 2.2 82 270 0.3 1.1 997.9 0.0000 0.2000
05:39 5 2.2 82 270 0.3 0.8 997.9 0.0000 0.2000
05:49 5 2.2 82 270 0.3 1.1 997.7 0.0000 0.2000
05:58 5 2.2 82 270 0.3 1.1 997.8 0.0000 0.2000
06:08 5 2.2 82 270 0.3 0.8 997.7 0.0000 0.2000
06:19 5 2.2 82 270 0.3 0.8 997.8 0.0000 0.2000
06:30 5 2.2 82 326 0.3 0.8 997.9 0.0000 0.2000
06:40 5 2.2 82 270 0.3 1.1 997.7 0.0000 0.2000
06:50 5 2.2 82 270 0.3 1.1 997.7 0.0000 0.2000
07:00 5 2.2 82 270 0.3 1.1 997.9 0.0000 0.2000
07:10 5 2.2 82 270 0.3 1.1 997.6 0.0000 0.2000
07:20 4.9 1.9 81 270 0.3 1.1 997.7 0.0000 0.2000
07:31 4.9 2.1 82 225 0.3 1.4 997.7 0.0000 0.2000
07:41 5.1 2.3 82 270 0.3 1.4 997.9 0.0000 0.2000
07:48 5.2 2.2 81 270 0.3 1.1 997.8 0.0000 0.2000
07:59 5.2 2.2 81 270 0.3 1.1 998 0.0000 0.2000
08:09 5.3 2.3 81 280 0.8 1.4 997.7 0.0000 0.2000
08:18 5.3 2.1 80 270 0.3 1.1 997.8 0.0000 0.2000
08:29 5.3 2.1 80 270 0.3 1.1 998 0.0000 0.2000
08:39 5.2 2 80 270 0.3 1.1 998 0.0000 0.2000
08:49 5.1 1.9 80 270 0.3 1.1 998.1 0.0000 0.2000
08:59 5.2 2 80 270 0.3 1.1 998.1 0.0000 0.2000
09:09 5.2 2 80 270 0.3 0.8 998.2 0.0000 0.2000
09:19 5.2 2 80 270 0.3 1.1 998.1 0.0000 0.2000
09:29 5.1 1.9 80 270 0.3 1.1 998.1 0.0000 0.2000
09:40 5.1 1.9 80 270 0.3 1.1 998 0.0000 0.2000
09:50 5.1 1.9 80 303 0.3 0.8 998.2 0.0000 0.2000
10:00 5.3 2.1 80 270 0.3 0.8 998.1 0.0000 0.2000
10:09 5.4 2.2 80 270 0.3 1.1 998.1 0.0000 0.2000
10:20 5.5 2.3 80 315 0.3 0.8 997.9 0.0000 0.2000
10:30 5.5 2.2 79 315 0.3 1.1 997.9 0.0000 0.2000
10:40 5.6 2.3 79 341 0.3 1.1 998 0.1010 0.3000
10:50 5.6 2.4 80 270 0.3 1.4 997.6 0.2020 0.4000
10:58 5.5 2.3 80 270 0.3 1.1 997.5 0.3031 0.5000
11:08 5.5 2.3 80 302 0.3 1.1 997.6 0.5052 0.7000
11:23 5.5 2.5 81 18 0.8 4.2 997.5 0.9093 1.1000
11:33 5.4 2.2 80 0 0.8 3.1 997.6 1.2125 1.4000
11:43 5.4 2.1 79 6 0.8 2.5 997.6 1.3135 1.6000
11:54 5.3 2.1 80 300 0.8 1.9 997.6 1.2125 1.6000
12:04 5.2 2 80 270 0.8 2.2 997.5 1.1114 1.7000
12:14 5.1 1.9 80 270 0.8 2.2 997.3 1.0104 1.9000
12:24 5 1.8 80 315 0.8 1.9 997.4 0.8083 1.9000
12:34 4.9 1.9 81 270 0.3 1.4 997.4 0.6062 2.0000
12:44 4.8 1.8 81 270 0.8 1.4 997.4 0.5052 2.1000
12:54 4.8 1.6 80 270 0.8 1.9 997.5 0.5052 2.1000
13:05 4.7 1.5 80 270 0.3 1.4 997.8 0.5052 2.2000
13:14 4.5 1.4 80 270 0.8 2.2 997.9 0.3031 2.2000
13:24 4.4 1.3 80 309 0.3 1.1 998 0.3031 2.2000
13:34 4.3 1 79 270 0.8 1.4 998.2 0.2020 2.2000
13:45 4.2 0.9 79 296 0.8 2.5 998.4 0.2020 2.3000
13:55 4.1 1 80 297 0.8 2.2 998.4 0.3031 2.4000
14:04 4 0.9 80 270 0.3 1.4 998.4 0.2020 2.4000
14:15 4 0.9 80 315 0.8 1.9 998.3 0.2020 2.4000
14:25 4 1 81 270 0.8 1.9 998.8 0.2020 2.4000
14:35 3.9 0.8 80 293 0.8 3.3 999 0.1010 2.4000
14:45 3.8 0.8 81 270 0.8 2.2 998.9 0.0000 2.4000
14:55 3.8 0.7 80 296 0.8 2.5 999.2 0.1010 2.5000
15:05 3.8 0.8 81 305 0.3 1.9 999.3 0.1010 2.5000
15:15 3.8 0.7 80 306 0.3 1.9 999.6 0.1010 2.5000
15:26 3.7 0.6 80 270 0.8 1.9 999.7 0.1010 2.5000
15:43 3.8 0.7 80 270 0.3 1.9 1000 0.1010 2.5000
15:54 3.8 0.7 80 296 0.8 1.9 1000.2 0.0000 2.5000
16:04 3.9 0.6 79 324 0.8 1.4 1000.3 0.0000 2.5000
16:14 3.9 0.4 78 315 0.8 1.9 1000.5 0.0000 2.5000
16:24 3.8 0.3 78 270 0.8 1.4 1000.6 0.0000 2.5000
16:34 3.8 0.1 77 270 0.8 2.2 1000.9 0.0000 2.5000
16:44 3.7 0.2 78 299 0.8 1.4 1001.1 0.0000 2.5000
16:54 3.7 0.2 78 302 0.3 1.4 1001.3 0.0000 2.5000
17:05 3.6 0 77 240 0.8 2.2 1001.4 0.0000 2.5000
17:15 3.5 -0.1 77 270 0.8 2.2 1001.6 0.0000 2.5000
17:24 3.3 -0.3 77 307 0.8 2.2 1001.8 0.0000 2.5000
17:35 3.2 -0.5 76 315 0.8 2.2 1002 0.0000 2.5000
17:45 3.2 -0.4 77 315 0.8 1.9 1002.2 0.0000 2.5000
17:55 3.1 -0.3 78 270 0.8 1.9 1002.4 0.0000 2.5000
18:03 2.9 -0.5 78 291 0.8 1.4 1002.5 0.1010 2.6000
18:12 2.9 -0.3 79 281 0.8 1.4 1002.3 0.1010 2.6000
18:22 2.8 -0.4 79 315 0.8 2.5 1002.8 0.1010 2.6000
18:30 2.7 -0.5 79 270 0.8 1.9 1002.8 0.3031 2.8000
18:40 2.6 -0.4 80 308 0.3 1.4 1003.1 0.4041 2.9000
18:50 2.5 -0.5 80 270 0.3 1.4 1003.3 0.6062 3.1000
19:00 2.4 -0.6 80 270 0.3 1.1 1003.4 0.8083 3.4000
19:10 2.1 -1 79 270 0.3 1.4 1003.6 0.9093 3.5000
19:20 1.8 -1.1 80 270 0.3 1.4 1003.8 0.9093 3.5000
19:31 1.6 -1.1 81 270 0.3 1.4 1003.9 0.7072 3.5000
19:40 1.6 -1.1 81 270 0.3 1.1 1004.1 0.5052 3.5000
19:50 1.7 -1.1 81 270 0.3 1.1 1004.3 0.4041 3.7000
20:01 1.8 -1 81 270 0.3 1.1 1004.5 0.3031 3.8000
20:11 1.8 -1 81 270 0.3 1.1 1004.7 0.4041 3.9000
20:21 1.8 -1 81 315 0.3 1.4 1005.2 0.4041 3.9000
20:31 1.7 -1.1 81 270 0.3 1.4 1005.3 0.5052 4.0000
20:41 1.7 -1.1 81 270 0.3 1.9 1005.4 0.4041 4.0000
20:51 1.7 -1.1 81 305 0.3 1.1 1005.6 0.4041 4.1000
21:01 1.7 -1.1 81 303 0.3 1.4 1005.9 0.3031 4.1000
21:12 1.6 -1.1 81 270 0.3 1.1 1006.2 0.2020 4.1000
21:21 1.7 -1.1 81 270 0.3 1.4 1006.3 0.2020 4.1000
21:31 1.7 -1.1 81 270 0.3 1.1 1006.6 0.2020 4.2000
21:38 1.7 -1.1 81 315 0.3 1.4 1006.7 0.2020 4.2000
21:48 1.6 -1.1 81 308 0.8 1.4 1006.7 0.1010 4.2000
21:58 1.6 -1.1 81 270 0.3 1.4 1006.7 0.1010 4.2000
22:08 1.5 -1.2 81 270 0.3 1.4 1007.3 0.1010 4.2000
22:18 1.5 -1.4 80 270 0.3 1.9 1007.3 0.1010 4.2000
22:28 1.4 -1.5 80 288 0.8 1.4 1007.5 0.0000 4.2000
22:39 1.4 -1.3 81 305 0.3 1.4 1007.6 0.0000 4.2000
22:48 1.4 -1.5 80 270 0.3 1.4 1007.8 0.0000 4.2000
22:58 1.3 -1.4 81 270 0.3 1.4 1008 0.0000 4.2000
23:09 1.3 -1.4 81 270 0.3 1.4 1008.1 0.0000 4.2000
23:19 1.2 -1.5 81 270 0.3 1.9 1008.1 0.0000 4.2000
23:29 1.2 -1.5 81 270 0.3 1.4 1008.3 0.0000 4.2000
23:38 1.1 -1.6 81 270 0.3 1.4 1008.4 0.0000 4.2000
23:49 1.1 -1.6 81 270 0.3 1.1 1008.4 0.0000 4.2000

TAGESSTATISTIK

2019-01-17
TEMPERATUR
MITTEL
4.0
MAXIMUM
5.6
10:40
MINIMUM
1.1
23:38
LUFTDRUCK
MITTEL
1000.2
MAXIMUM
1008.4
23:38
MINIMUM
997.3
12:14
TAUPUNKT
MITTEL
0.9
MAXIMUM
2.5
11:23
MINIMUM
-1.6
23:38
FEUCHTIGKEIT
MITTEL
80
MAXIMUM
82
03:58
MINIMUM
75
00:05
WINDSTÄRKE
MITTEL
0.5
MAXIMUM
0.8
00:16
WINDBÖE
MITTEL
1.5
MAXIMUM
4.2
11:23
WINDRICHTUNG
VORHERRSCHENDE
W
68.3%
N
4.2
NO
0.7
O
0.0
SO
0.0
S
0.0
SW
1.4
W
68.3
NW
25.4
NIEDERSCHLAG
REGEN STUNDE
1.3
REGEN TAG
4.2
TEMPERATUR (°C)
MINIMUM
1.1
MAXIMUM
5.6
MITTEL
4.0
LUFTDRUCK (hpa)
MINIMUM
997.3
MAXIMUM
1008.4
MITTEL
1000.2
MESSGERÄT